Simaisma — SWSP — position and weather

sailwx.info

Track history (hours):
 
Tides and Currents Weather Stations Pressure Air Temp Water Temp Dewpoint Dewpoint Depression Visibility Wind Speed Wind Dir Waves Ship Positions

Simaisma

Last reported at 2018-Jun-21 11:00 UTC. Time now 2018-Jun-21 12:28 UTC.
Position N 39°46' E 005°53'.

Length 285 m; draft 9.2 m.

Type: Ship (hazmat cat A). MMSI: 240451591.

Date/timePositionNaut miles runAvg speedWind from/ knotsBaromVisibWave heightAir tempDewpointWater temp
2018-Jun-21 11:00N 39°46' E 005°53'611.5
2018-Jun-21 10:28N 39°43' E 005°59'1111.6
2018-Jun-21 09:29N 39°36' E 006°12'611.7
2018-Jun-21 09:00N 39°33' E 006°18'36212.0
2018-Jun-20 02:50N 37°03' E 013°17'412.0
2018-Jun-20 02:30N 37°01' E 013°21'611.9
2018-Jun-20 02:00N 36°57' E 013°28'612.0
2018-Jun-20 01:30N 36°54' E 013°34'612.2
2018-Jun-20 01:00N 36°51' E 013°40'612.2
2018-Jun-20 00:30N 36°48' E 013°47'612.1
2018-Jun-20 00:00N 36°44' E 013°53'612.2
2018-Jun-19 23:30N 36°40' E 013°59'612.1
2018-Jun-19 23:00N 36°37' E 014°06'611.8
2018-Jun-19 22:30N 36°35' E 014°12'612.1
2018-Jun-19 22:00N 36°32' E 014°19'612.4
2018-Jun-19 21:30N 36°29' E 014°25'612.6
2018-Jun-19 21:00N 36°26' E 014°33'612.4
2018-Jun-19 20:29N 36°25' E 014°40'612.4
2018-Jun-19 20:00N 36°23' E 014°48'612.8
2018-Jun-19 19:30N 36°21' E 014°55'  
2018-Jun-16 03:47N 32°26' E 030°01'312.3
2018-Jun-16 03:30N 32°25' E 030°04'2412.6
2018-Jun-16 01:37N 32°18' E 030°31'312.6
2018-Jun-16 01:22N 32°17' E 030°35'912.9
2018-Jun-16 00:42N 32°14' E 030°45'313.0
2018-Jun-16 00:27N 32°13' E 030°48'713.2
2018-Jun-15 23:56N 32°10' E 030°55'613.4
2018-Jun-15 23:30N 32°08' E 031°02'713.4
2018-Jun-15 23:00N 32°05' E 031°09'713.4
2018-Jun-15 22:30N 32°02' E 031°16'613.1
2018-Jun-15 22:00N 31°60' E 031°23'712.9
2018-Jun-15 21:30N 31°57' E 031°30'612.7
2018-Jun-15 21:00N 31°55' E 031°37'612.6
2018-Jun-15 20:30N 31°52' E 031°44'612.5
2018-Jun-15 20:00N 31°50' E 031°51'612.4
2018-Jun-15 19:30N 31°48' E 031°57'612.2
2018-Jun-15 19:00N 31°43' E 032°02'912.5
2018-Jun-15 18:17N 31°37' E 032°10'312.5
2018-Jun-15 18:00N 31°34' E 032°13'712.4
2018-Jun-15 17:29N 31°31' E 032°19'611.9
2018-Jun-15 17:00N 31°27' E 032°24'510.1
2018-Jun-15 16:30N 31°22' E 032°23'611.1
2018-Jun-15 16:00N 31°17' E 032°22'4 8.2
2018-Jun-15 15:30N 31°13' E 032°20'4 7.2
2018-Jun-15 15:00N 31°09' E 032°19'8 9.2
2018-Jun-15 14:11N 31°02' E 032°19'2 7.9
2018-Jun-15 13:54N 30°60' E 032°19'3 7.9
2018-Jun-15 13:30N 30°56' E 032°19'  
Track history (hours):
 
Tides and Currents Weather Stations Pressure Air Temp Water Temp Dewpoint Dewpoint Depression Visibility Wind Speed Wind Dir Waves Ship Positions

Simaisma

Last reported at 2018-Jun-21 11:00 UTC. Time now 2018-Jun-21 12:28 UTC.
Position N 39°46' E 005°53'.

Length 285 m; draft 9.2 m.

Type: Ship (hazmat cat A). MMSI: 240451591.

Date/timePositionNaut miles runAvg speedWind from/ knotsBaromVisibWave heightAir tempDewpointWater temp
2018-Jun-21 11:00N 39°46' E 005°53'611.5
2018-Jun-21 10:28N 39°43' E 005°59'1111.6
2018-Jun-21 09:29N 39°36' E 006°12'611.7
2018-Jun-21 09:00N 39°33' E 006°18'36212.0
2018-Jun-20 02:50N 37°03' E 013°17'412.0
2018-Jun-20 02:30N 37°01' E 013°21'611.9
2018-Jun-20 02:00N 36°57' E 013°28'612.0
2018-Jun-20 01:30N 36°54' E 013°34'612.2
2018-Jun-20 01:00N 36°51' E 013°40'612.2
2018-Jun-20 00:30N 36°48' E 013°47'612.1
2018-Jun-20 00:00N 36°44' E 013°53'612.2
2018-Jun-19 23:30N 36°40' E 013°59'612.1
2018-Jun-19 23:00N 36°37' E 014°06'611.8
2018-Jun-19 22:30N 36°35' E 014°12'612.1
2018-Jun-19 22:00N 36°32' E 014°19'612.4
2018-Jun-19 21:30N 36°29' E 014°25'612.6
2018-Jun-19 21:00N 36°26' E 014°33'612.4
2018-Jun-19 20:29N 36°25' E 014°40'612.4
2018-Jun-19 20:00N 36°23' E 014°48'612.8
2018-Jun-19 19:30N 36°21' E 014°55'  
2018-Jun-16 03:47N 32°26' E 030°01'312.3
2018-Jun-16 03:30N 32°25' E 030°04'2412.6
2018-Jun-16 01:37N 32°18' E 030°31'312.6
2018-Jun-16 01:22N 32°17' E 030°35'912.9
2018-Jun-16 00:42N 32°14' E 030°45'313.0
2018-Jun-16 00:27N 32°13' E 030°48'713.2
2018-Jun-15 23:56N 32°10' E 030°55'613.4
2018-Jun-15 23:30N 32°08' E 031°02'713.4
2018-Jun-15 23:00N 32°05' E 031°09'713.4
2018-Jun-15 22:30N 32°02' E 031°16'613.1
2018-Jun-15 22:00N 31°60' E 031°23'712.9
2018-Jun-15 21:30N 31°57' E 031°30'612.7
2018-Jun-15 21:00N 31°55' E 031°37'612.6
2018-Jun-15 20:30N 31°52' E 031°44'612.5
2018-Jun-15 20:00N 31°50' E 031°51'612.4
2018-Jun-15 19:30N 31°48' E 031°57'612.2
2018-Jun-15 19:00N 31°43' E 032°02'912.5
2018-Jun-15 18:17N 31°37' E 032°10'312.5
2018-Jun-15 18:00N 31°34' E 032°13'712.4
2018-Jun-15 17:29N 31°31' E 032°19'611.9
2018-Jun-15 17:00N 31°27' E 032°24'510.1
2018-Jun-15 16:30N 31°22' E 032°23'611.1
2018-Jun-15 16:00N 31°17' E 032°22'4 8.2
2018-Jun-15 15:30N 31°13' E 032°20'4 7.2
2018-Jun-15 15:00N 31°09' E 032°19'8 9.2
2018-Jun-15 14:11N 31°02' E 032°19'2 7.9
2018-Jun-15 13:54N 30°60' E 032°19'3 7.9
2018-Jun-15 13:30N 30°56' E 032°19'  

Dump ship's entire track history